Aérodrome :
LOGIN :

S'inscrire | Disclaimer

   EN    FR    IT 

 










Légende :    VFR   VFR Marginal   IFR   IFR Intensif   IFR Très Intensif
Visi : 
Plafond : 
>= 8 km
>= 3000ft
5 à 8 km
1000 à 3000 ft
1500m à 5 km
500 à 1000 ft
800 à 1500m
200 à 500 ft
< 800m
< 200 ft
Symboles :   Orages  Brouillard  Fortes neiges  Fortes précipitations  Vent > 20 kt
SIGMETs :   Divers  Orages  Givrage  Turbulence  Onde Orograph.  Cendres Volcan.






- Altitude de l'aérodrome : 287 ft
- Code IATA : IAR


UUDL - Tunoshna

DERNIER METAR :
  • 210700Z 23002MPS 9999 BKN040 03/00 Q1019 R23/290250 NOSIG RMK QFE756

METARs EXPIRÉS :
  • 210630Z 21002MPS 9999 BKN040 02/00 Q1019 R23/290250 NOSIG RMK QFE756
  • 210600Z 19002MPS 9999 BKN030 01/01 Q1019 R23/290250 NOSIG RMK QFE756
  • 210530Z 15001MPS 9999 BKN040 01/00 Q1019 R05/290250 NOSIG RMK QFE756
  • 210500Z 20002MPS 9999 OVC041 01/01 Q1019 R23/290250 NOSIG RMK QFE756
  • 210430Z 21002MPS 9999 OVC029 02/00 Q1019 R23/150060 NOSIG RMK QFE756

TAF TAF UUDL
Valide du 21 à 06h jusqu'au 22 à 06h UTC


210500Z 2106/2206 19003MPS 9999 BKN040 TX05/2112Z TN00/2203Z
TEMPO 2106/2112 BKN016



MET'MAP, la Météo Aéronautique d'un coup d'oeil ! - Copyright ORBIFLY Décembre 2007 - Disclaimer

ORBIFLY MET'MAP TEAM :

Programmation & Développement : Alexandra Zaïnal
Sur une idée originale de : Baudouin d'Aumeries
Assistance à la programmation : Marc-Olivier Méhu
Soutien technique & logistique : Manuel Goepfert

Contact : metmap@orbifly.com




SOURCES & CREDITS :

   NOAA